• Join FlightAware (Why Join?)
  • Login
  • US Flag 
07:50PM EDT


 

Airport Tracker/Info


-or-


 

Live Flight TrackerFlight Track Log ✈ N88WF ✈ 05-Aug-2013 ✈ KMTP - KHPN

Flight Track Log - Related Links

Times and Time Zones

All times are in EDT time to prevent confusion due to time zone crossing. See the N88WF flight status page for this flight to view local times or setup timezone preferences in your user account.

Time Position Orientation Groundspeed Altitude Reporting Facility
EDT Latitude Longitude Course Direction KTS MPH feet Rate Location/Type
09:15AM 41.0833 -72.3167 265° West 134 154 5,200  Level New York TRACON
09:16AM 41.0768 -71.9749 270° West  Level Estimated
09:16AM 41.1000 -72.3667 294° West 122 140 5,900  Level New York TRACON
09:17AM 41.0769 -72.0294 270° West  Level Estimated
09:17AM 41.1000 -72.4167 270° West 142 163 6,000  Level New York TRACON
09:18AM 41.0769 -72.0838 270° West  Level Estimated
09:18AM 41.1000 -72.4667 270° West 149 171 6,000  Level New York TRACON
09:19AM 41.1167 -72.5167 294° West 151 174 6,000  Level New York TRACON
09:19AM 41.1167 -72.5667 270° West 155 178 6,000 -120 Level New York TRACON
09:20AM 41.1167 -72.6333 270° West 161 185 5,800 -240 Descending New York TRACON
09:21AM 41.1333 -72.6833 294° West 160 184 5,600 -240 Descending New York TRACON
09:23AM 41.1500 -72.7500 288° West 160 184 5,300 -300 Descending New York TRACON
09:23AM 41.1500 -72.8000 270° West 167 192 5,000 -360 Descending New York TRACON
09:24AM 41.1500 -72.8667 270° West 171 197 4,700 -300 Descending New York TRACON
09:25AM 41.1500 -72.9333 270° West 170 196 4,500 -120 Descending New York TRACON
09:26AM 41.1333 -72.9833 246° West 165 190 4,500  Level New York TRACON
09:27AM 41.1333 -73.0500 270° West 160 184 4,500  Level New York TRACON
09:28AM 41.1333 -73.1000 270° West 158 182 4,500  Level New York TRACON
09:29AM 41.1167 -73.1500 246° West 153 176 4,500  Level New York TRACON
09:30AM 41.1167 -73.2167 270° West 151 174 4,500 -120 Level New York TRACON
09:31AM 41.1167 -73.2667 270° West 156 180 4,300 -240 Descending New York TRACON
09:32AM 41.1000 -73.3167 246° West 151 174 4,100 -240 Descending New York TRACON
09:33AM 41.1000 -73.3667 270° West 146 168 3,900 -300 Descending New York TRACON
09:34AM 41.0833 -73.4167 246° West 140 161 3,600 -420 Descending New York TRACON
09:35AM 41.0833 -73.4667 270° West 151 174 3,100 -660 Descending New York TRACON
09:36AM 41.0667 -73.5333 252° West 160 184 2,300 -720 Descending New York TRACON
09:37AM 41.0500 -73.5833 246° West 143 165 1,700 -480 Descending New York TRACON
09:38AM 41.0500 -73.6333 270° West 121 139 1,400 -360 Descending New York TRACON
09:39AM 41.0667 -73.6667 304° West 106 122 1,000 -420 Descending New York TRACON
09:41AM 41.0667 -73.7000 270° West  Level FlightAware Approximate
09:48AM 41.0669 -73.7076 270° West  Level Estimated
09:49AM 41.0667 -73.7000 270° West  Level FlightAware Approximate